Time;durP1;ratioP1;P1;durP2;ratioP2;P2;SDS_P1;SDS_P2;PMS_P1;PMS_P2;Temp;Humidity;BMP_temperature;BMP_pressure;BME280_temperature;BME280_humidity;BME280_pressure;Samples;Min_cycle;Max_cycle;Signal;HPM_P1;HPM_P2
2021/08/04 00:01:30;;;;;;;1.60;1.50;;;;;;;15.34;95.44;100343.28;5011300;28;20268;-71
2021/08/04 00:03:55;;;;;;;1.43;1.37;;;;;;;15.37;95.98;100345.34;5011448;28;20195;-72
2021/08/04 00:06:21;;;;;;;1.40;1.30;;;;;;;15.36;96.08;100348.44;5011339;28;20211;-71
2021/08/04 00:08:46;;;;;;;1.87;1.73;;;;;;;15.35;95.39;100347.63;5011213;28;20389;-71
2021/08/04 00:11:11;;;;;;;2.07;1.50;;;;;;;15.40;95.83;100352.09;5011401;28;20208;-71
2021/08/04 00:13:37;;;;;;;1.40;1.30;;;;;;;15.41;96.39;100346.25;5011111;28;20180;-71
2021/08/04 00:16:02;;;;;;;1.37;1.27;;;;;;;15.41;95.94;100343.50;5026304;28;20192;-71
2021/08/04 00:18:28;;;;;;;2.03;1.37;;;;;;;15.44;95.46;100344.75;5011156;28;20263;-71
2021/08/04 00:20:53;;;;;;;2.30;2.20;;;;;;;15.46;95.12;100346.00;5011599;28;20196;-71
2021/08/04 00:23:19;;;;;;;1.40;1.30;;;;;;;15.52;94.40;100348.53;5010982;28;20207;-71
2021/08/04 00:25:44;;;;;;;1.83;1.40;;;;;;;15.54;95.51;100346.22;5011404;28;20184;-71
2021/08/04 00:28:10;;;;;;;1.30;1.30;;;;;;;15.55;95.71;100350.59;5011001;28;20191;-71
2021/08/04 00:30:35;;;;;;;1.40;1.30;;;;;;;15.56;96.92;100352.19;5011099;28;20271;-71
2021/08/04 00:33:00;;;;;;;2.50;1.20;;;;;;;15.54;97.91;100340.72;5010621;28;20698;-71
2021/08/04 00:35:26;;;;;;;1.50;1.40;;;;;;;15.48;99.23;100346.47;5011233;28;20184;-71
2021/08/04 00:37:51;;;;;;;1.30;1.20;;;;;;;15.48;98.49;100349.22;5010576;28;20706;-71
2021/08/04 00:40:17;;;;;;;1.40;1.30;;;;;;;15.44;97.76;100351.03;5011097;28;20200;-71
2021/08/04 00:42:43;;;;;;;1.73;1.33;;;;;;;15.44;97.82;100350.25;5011197;28;20440;-71
2021/08/04 00:45:09;;;;;;;1.73;1.63;;;;;;;15.41;98.47;100346.25;5011489;28;20168;-71
2021/08/04 00:47:35;;;;;;;1.57;1.30;;;;;;;15.39;100.00;100347.75;5009928;28;20574;-71
2021/08/04 00:50:02;;;;;;;1.47;1.37;;;;;;;15.34;100.00;100350.75;5010874;28;20621;-71
2021/08/04 00:52:27;;;;;;;1.63;1.53;;;;;;;15.32;99.02;100351.06;5010571;28;20187;-71
2021/08/04 00:54:52;;;;;;;1.53;1.37;;;;;;;15.41;98.60;100356.44;5010943;28;20173;-71
2021/08/04 00:57:18;;;;;;;3.33;1.13;;;;;;;15.42;100.00;100347.03;5010787;28;20180;-71
2021/08/04 00:59:44;;;;;;;2.37;1.50;;;;;;;15.36;100.00;100352.00;5010785;28;20180;-71
2021/08/04 01:02:18;;;;;;;1.50;1.40;;;;;;;15.32;100.00;100348.31;5010481;28;20184;-71
2021/08/04 01:04:43;;;;;;;2.73;1.50;;;;;;;15.30;100.00;100344.28;5010675;28;20173;-71
2021/08/04 01:07:30;;;;;;;4.50;1.37;;;;;;;15.29;99.69;100354.50;5010617;28;20165;-71
2021/08/04 01:10:11;;;;;;;1.40;1.30;;;;;;;15.28;98.83;100347.41;5008000;28;20212;-71
2021/08/04 01:12:49;;;;;;;1.53;1.43;;;;;;;15.28;98.05;100344.66;5010350;28;20182;-71
2021/08/04 01:15:14;;;;;;;1.40;1.30;;;;;;;15.29;98.58;100351.75;5011034;28;20196;-71
2021/08/04 01:17:45;;;;;;;3.30;1.60;;;;;;;15.26;99.64;100341.44;5010913;28;20173;-71
2021/08/04 01:20:19;;;;;;;1.70;1.60;;;;;;;15.25;99.94;100348.09;5010951;28;20226;-71
2021/08/04 01:22:56;;;;;;;1.50;1.40;;;;;;;15.27;100.00;100354.06;5010815;28;20438;-71
2021/08/04 01:25:28;;;;;;;2.97;1.43;;;;;;;15.24;100.00;100342.94;5010935;28;20176;-71
2021/08/04 01:28:16;;;;;;;1.50;1.40;;;;;;;15.19;100.00;100346.72;5010890;28;20706;-71
2021/08/04 01:30:44;;;;;;;1.77;1.67;;;;;;;15.11;100.00;100372.41;5010863;28;20199;-71
2021/08/04 01:33:11;;;;;;;2.27;1.13;;;;;;;15.06;100.00;100345.13;5010609;28;20208;-71
2021/08/04 01:35:36;;;;;;;1.60;1.50;;;;;;;15.00;100.00;100344.53;5010798;28;20242;-71
2021/08/04 01:38:02;;;;;;;1.90;1.57;;;;;;;15.02;100.00;100349.69;5010587;28;20640;-71
2021/08/04 01:40:28;;;;;;;2.60;1.53;;;;;;;15.03;100.00;100354.03;5011006;28;20184;-71
2021/08/04 01:42:53;;;;;;;1.60;1.50;;;;;;;14.98;100.00;100343.28;5010610;28;20208;-71
2021/08/04 01:45:19;;;;;;;5.70;1.50;;;;;;;15.00;100.00;100346.47;5026503;28;20628;-71
2021/08/04 01:47:44;;;;;;;1.70;1.60;;;;;;;14.98;100.00;100348.78;5014495;28;20184;-71
2021/08/04 01:50:12;;;;;;;1.43;1.33;;;;;;;14.97;100.00;100352.69;5014254;28;20658;-71
2021/08/04 01:52:38;;;;;;;1.60;1.50;;;;;;;14.94;100.00;100347.88;5014238;28;20177;-71
2021/08/04 01:55:04;;;;;;;2.03;1.70;;;;;;;14.96;100.00;100342.81;5029440;28;20656;-71
2021/08/04 01:57:29;;;;;;;1.93;1.37;;;;;;;14.98;100.00;100343.28;5014291;28;20606;-71
2021/08/04 01:59:54;;;;;;;1.60;1.50;;;;;;;14.96;100.00;100338.13;5014211;28;20182;-71
2021/08/04 02:02:22;;;;;;;1.37;1.27;;;;;;;14.98;100.00;100343.28;5013968;28;20173;-71
2021/08/04 02:04:48;;;;;;;1.00;1.00;;;;;;;14.95;100.00;100327.47;5014042;28;20648;-71
2021/08/04 02:07:54;;;;;;;3.00;1.50;;;;;;;14.91;100.00;100321.06;5013857;28;20184;-71
2021/08/04 02:10:25;;;;;;;2.03;1.40;;;;;;;14.91;100.00;100321.06;5013326;28;20199;-71
2021/08/04 02:12:56;;;;;;;1.40;1.30;;;;;;;14.94;100.00;100325.88;5013362;28;20538;-71
2021/08/04 02:15:23;;;;;;;1.93;1.83;;;;;;;14.88;100.00;100328.81;5013378;28;20666;-71
2021/08/04 02:17:58;;;;;;;1.83;1.70;;;;;;;14.82;100.00;100327.44;5013689;28;20268;-71
2021/08/04 02:20:28;;;;;;;1.70;1.60;;;;;;;14.77;100.00;100324.94;5013389;28;20183;-71
2021/08/04 02:23:28;;;;;;;1.50;1.40;;;;;;;14.82;100.00;100327.44;5013123;28;20176;-71
2021/08/04 02:26:12;;;;;;;1.57;1.47;;;;;;;14.81;100.00;100323.09;5022300;28;20243;-71
2021/08/04 02:28:40;;;;;;;1.43;1.20;;;;;;;14.77;100.00;100327.69;5013139;28;20676;-71
2021/08/04 02:31:11;;;;;;;1.60;1.50;;;;;;;14.78;100.00;100321.03;5013158;28;20181;-71
2021/08/04 02:33:36;;;;;;;1.63;1.53;;;;;;;14.81;100.00;100323.09;5011641;28;20168;-71
2021/08/04 02:36:03;;;;;;;1.53;1.43;;;;;;;14.85;100.00;100337.75;5013296;28;20643;-71
2021/08/04 02:38:29;;;;;;;1.87;1.77;;;;;;;14.91;100.00;100351.31;5013055;28;20663;-71
2021/08/04 02:40:55;;;;;;;1.60;1.50;;;;;;;14.96;100.00;100340.88;5012948;28;20172;-71
2021/08/04 02:43:22;;;;;;;1.80;1.47;;;;;;;14.95;100.00;100342.03;5012731;28;20181;-71
2021/08/04 02:45:49;;;;;;;1.57;1.40;;;;;;;14.93;100.00;100341.56;5013335;28;20176;-71
2021/08/04 02:48:14;;;;;;;1.90;1.40;;;;;;;14.95;100.00;100335.72;5012941;28;20187;-71
2021/08/04 02:50:46;;;;;;;1.93;1.57;;;;;;;14.94;100.00;100334.91;5012968;28;20177;-71
2021/08/04 02:53:17;;;;;;;1.47;1.37;;;;;;;14.93;100.00;100338.81;5012576;28;20172;-71
2021/08/04 02:55:43;;;;;;;1.40;1.30;;;;;;;14.97;100.00;100338.91;5012794;28;20188;-71
2021/08/04 02:58:09;;;;;;;1.70;1.60;;;;;;;15.04;100.00;100341.88;5012270;28;20173;-71
2021/08/04 03:00:34;;;;;;;2.00;1.90;;;;;;;15.04;100.00;100341.88;5012694;28;20456;-71
2021/08/04 03:02:59;;;;;;;1.50;1.40;;;;;;;14.98;100.00;100340.53;5012423;28;20223;-71
2021/08/04 03:05:25;;;;;;;1.43;1.33;;;;;;;14.86;100.00;100342.13;5012423;28;20201;-71
2021/08/04 03:07:50;;;;;;;1.60;1.50;;;;;;;14.80;100.00;100338.00;5012498;28;20177;-71
2021/08/04 03:10:15;;;;;;;1.40;1.30;;;;;;;14.82;100.00;100340.41;5027604;28;20258;-71
2021/08/04 03:12:41;;;;;;;2.03;1.50;;;;;;;14.78;100.00;100342.25;5012167;28;20184;-71
2021/08/04 03:15:07;;;;;;;1.90;1.80;;;;;;;14.73;100.00;100351.50;5012334;28;20173;-71
2021/08/04 03:17:32;;;;;;;1.50;1.40;;;;;;;14.68;100.00;100467.22;5012333;28;20184;-71
2021/08/04 03:19:57;;;;;;;1.47;1.37;;;;;;;14.66;100.00;100597.97;5012259;28;20703;-71
2021/08/04 03:22:23;;;;;;;1.83;1.73;;;;;;;14.65;100.00;100525.66;5012163;28;20521;-71
2021/08/04 03:24:48;;;;;;;1.70;1.60;;;;;;;14.66;100.00;100491.50;5012222;28;20620;-71
2021/08/04 03:27:13;;;;;;;1.97;1.87;;;;;;;14.67;100.00;100492.31;5012047;28;20184;-71
2021/08/04 03:29:39;;;;;;;1.87;1.77;;;;;;;14.65;100.00;100464.34;5011966;28;20243;-71
2021/08/04 03:32:05;;;;;;;1.90;1.80;;;;;;;14.65;100.00;100459.66;5011838;28;20230;-71
2021/08/04 03:34:30;;;;;;;2.30;1.87;;;;;;;14.65;100.00;100454.16;5011966;28;20223;-71
2021/08/04 03:36:56;;;;;;;2.43;1.80;;;;;;;14.65;100.00;100440.41;5011972;28;20637;-71
2021/08/04 03:39:21;;;;;;;2.30;1.73;;;;;;;14.62;100.00;100419.09;5011643;28;20176;-71
2021/08/04 03:41:46;;;;;;;1.87;1.77;;;;;;;14.63;100.00;100417.94;5011604;28;20184;-71
2021/08/04 03:44:12;;;;;;;1.70;1.33;;;;;;;14.66;100.00;100413.72;5012025;28;20177;-71
2021/08/04 03:46:37;;;;;;;5.30;2.03;;;;;;;14.62;100.00;100408.09;5011795;28;20656;-71
2021/08/04 03:49:02;;;;;;;2.20;1.80;;;;;;;14.63;100.00;100406.16;5011581;28;20192;-71
2021/08/04 03:51:28;;;;;;;1.93;1.80;;;;;;;14.62;100.00;100402.59;5011537;28;20176;-71
2021/08/04 03:53:53;;;;;;;2.03;1.93;;;;;;;14.67;100.00;100401.56;5011661;28;20211;-71
2021/08/04 03:56:18;;;;;;;2.23;2.13;;;;;;;14.69;100.00;100410.28;5011712;28;20395;-71
2021/08/04 03:58:44;;;;;;;3.83;2.23;;;;;;;14.70;100.00;100409.13;5011473;28;20267;-71
2021/08/04 04:01:09;;;;;;;2.30;2.20;;;;;;;14.70;100.00;100407.19;5011567;28;20200;-71
2021/08/04 04:03:34;;;;;;;2.33;2.13;;;;;;;14.68;100.00;100412.22;5011347;28;20526;-72
2021/08/04 04:06:00;;;;;;;2.33;2.13;;;;;;;14.64;100.00;100411.31;5011913;28;20781;-71
2021/08/04 04:08:25;;;;;;;2.20;2.00;;;;;;;14.60;100.00;100404.84;5010563;28;20525;-71
2021/08/04 04:10:50;;;;;;;2.30;2.10;;;;;;;14.56;100.00;100421.22;5026574;28;20216;-71
2021/08/04 04:13:16;;;;;;;2.63;2.43;;;;;;;14.56;100.00;100415.75;5011103;28;20183;-71
2021/08/04 04:15:41;;;;;;;2.13;2.03;;;;;;;14.56;100.00;100429.47;5011281;28;20180;-71
2021/08/04 04:18:07;;;;;;;2.50;2.30;;;;;;;14.59;100.00;100543.47;5011267;28;20172;-71
2021/08/04 04:20:32;;;;;;;1.97;1.87;;;;;;;14.57;100.00;100508.06;5011184;28;20671;-71
2021/08/04 04:22:58;;;;;;;2.40;2.30;;;;;;;14.56;100.00;100478.97;5010898;28;20518;-71
2021/08/04 04:25:23;;;;;;;2.27;2.10;;;;;;;14.54;100.00;100452.97;5011181;28;20183;-71
2021/08/04 04:27:48;;;;;;;3.53;2.40;;;;;;;14.55;100.00;100447.13;5011011;28;20533;-71
2021/08/04 04:30:14;;;;;;;2.80;2.60;;;;;;;14.55;100.00;100451.81;5011275;28;20204;-71
2021/08/04 04:32:40;;;;;;;2.73;2.53;;;;;;;14.55;100.00;100460.88;5010761;28;20175;-71
2021/08/04 04:35:06;;;;;;;2.00;1.90;;;;;;;14.56;100.00;100456.19;5009646;28;20643;-71
2021/08/04 04:37:31;;;;;;;3.03;2.70;;;;;;;14.56;100.00;100462.47;5010710;28;20176;-71
2021/08/04 04:39:57;;;;;;;2.53;2.33;;;;;;;14.59;100.00;100463.75;5010746;28;20184;-71
2021/08/04 04:42:23;;;;;;;2.80;2.43;;;;;;;14.62;100.00;100454.84;5010626;28;20173;-71
2021/08/04 04:44:48;;;;;;;2.97;2.77;;;;;;;14.64;100.00;100460.81;5010799;28;20232;-70
2021/08/04 04:47:14;;;;;;;2.60;2.40;;;;;;;14.67;100.00;100462.06;5010791;28;20540;-71
2021/08/04 04:49:39;;;;;;;2.60;2.40;;;;;;;14.67;100.00;100462.88;5010603;28;20580;-71
2021/08/04 04:52:05;;;;;;;2.40;2.20;;;;;;;14.70;100.00;100464.94;5010491;28;20243;-72
2021/08/04 04:54:30;;;;;;;2.50;2.30;;;;;;;14.75;100.00;100461.97;5010942;28;20172;-71
2021/08/04 04:56:55;;;;;;;2.50;2.30;;;;;;;14.79;100.00;100468.41;5010701;28;20179;-72
2021/08/04 04:59:21;;;;;;;3.50;2.83;;;;;;;14.82;100.00;100459.47;5010586;28;20177;-71
2021/08/04 05:01:46;;;;;;;2.77;2.57;;;;;;;14.87;100.00;100467.50;5010352;28;20185;-71
2021/08/04 05:04:11;;;;;;;3.40;3.10;;;;;;;14.94;100.00;100466.16;5010412;28;20181;-71
2021/08/04 05:06:37;;;;;;;3.03;2.73;;;;;;;14.95;100.00;100462.28;5010886;28;20181;-71
2021/08/04 05:09:02;;;;;;;2.60;2.40;;;;;;;15.00;100.00;100470.28;5010603;28;20200;-71
2021/08/04 05:11:28;;;;;;;3.77;3.47;;;;;;;15.03;100.00;100466.84;5010411;28;20180;-71
2021/08/04 05:13:53;;;;;;;3.20;3.00;;;;;;;15.06;100.00;100466.19;5010533;28;20188;-71
2021/08/04 05:16:18;;;;;;;3.33;3.03;;;;;;;15.08;100.00;100461.97;5010708;28;20239;-72
2021/08/04 05:18:44;;;;;;;2.77;2.57;;;;;;;15.11;100.00;100468.72;5010372;28;20239;-71
2021/08/04 05:21:09;;;;;;;4.67;2.37;;;;;;;15.16;100.00;100462.97;5014028;28;20663;-72
2021/08/04 05:23:34;;;;;;;3.70;2.50;;;;;;;15.18;100.00;100471.69;5029420;28;20241;-71
2021/08/04 05:26:00;;;;;;;2.40;2.20;;;;;;;15.21;100.00;100471.03;5014412;28;20203;-71
2021/08/04 05:28:25;;;;;;;3.27;2.47;;;;;;;15.23;100.00;100466.00;5014269;28;20824;-71
2021/08/04 05:30:50;;;;;;;4.00;2.37;;;;;;;15.21;100.00;100475.75;5014210;28;20180;-71
2021/08/04 05:33:16;;;;;;;3.67;3.37;;;;;;;15.28;100.00;100474.03;5014061;28;20271;-71
2021/08/04 05:35:41;;;;;;;2.70;2.50;;;;;;;15.36;100.00;100475.06;5014090;28;20636;-71
2021/08/04 05:38:06;;;;;;;3.00;2.80;;;;;;;15.40;100.00;100479.53;5014014;28;20334;-71
2021/08/04 05:40:32;;;;;;;2.67;2.47;;;;;;;15.44;100.00;100474.94;5014120;28;20188;-71
2021/08/04 05:42:57;;;;;;;3.47;3.27;;;;;;;15.52;100.00;100487.00;5013943;28;20185;-69
2021/08/04 05:45:22;;;;;;;2.50;2.30;;;;;;;15.56;100.00;100485.16;5014035;28;20722;-72
2021/08/04 05:47:48;;;;;;;2.70;2.50;;;;;;;15.61;100.00;100492.44;5029125;28;20632;-71
2021/08/04 05:50:13;;;;;;;2.60;2.40;;;;;;;15.72;100.00;100493.59;5013890;28;20287;-72
2021/08/04 05:52:39;;;;;;;2.93;2.73;;;;;;;15.61;100.00;100479.47;5013663;28;20224;-72
2021/08/04 05:55:05;;;;;;;3.00;2.80;;;;;;;15.72;100.00;100490.81;5013916;28;20187;-72
2021/08/04 05:57:31;;;;;;;3.97;2.67;;;;;;;15.83;100.00;100483.72;5013796;28;20169;-72
2021/08/04 05:59:56;;;;;;;3.53;3.33;;;;;;;15.92;100.00;100478.09;5013762;28;20184;-71
2021/08/04 06:02:21;;;;;;;3.37;2.60;;;;;;;15.87;100.00;100487.38;5013367;28;20264;-72
2021/08/04 06:04:47;;;;;;;2.70;2.53;;;;;;;16.06;100.00;100486.78;5013459;28;20180;-72
2021/08/04 06:07:12;;;;;;;3.67;3.37;;;;;;;16.04;99.63;100478.03;5013530;28;20272;-71
2021/08/04 06:09:38;;;;;;;2.80;2.60;;;;;;;16.14;99.78;100494.13;5013462;28;20265;-71
2021/08/04 06:12:03;;;;;;;3.13;2.83;;;;;;;16.26;99.38;100501.56;5013241;28;20188;-71
2021/08/04 06:14:29;;;;;;;2.73;2.53;;;;;;;16.35;99.43;100500.28;5013363;28;20621;-73
2021/08/04 06:16:54;;;;;;;6.20;2.60;;;;;;;16.32;96.72;100500.16;5013223;28;20254;-73
2021/08/04 06:19:19;;;;;;;2.33;2.23;;;;;;;16.24;97.49;100503.88;5013566;28;20586;-73
2021/08/04 06:21:45;;;;;;;2.37;2.23;;;;;;;16.23;98.05;100503.06;5013011;28;20180;-73
2021/08/04 06:24:10;;;;;;;2.80;2.60;;;;;;;16.21;98.59;100504.56;5013219;28;20227;-73
2021/08/04 06:26:35;;;;;;;2.90;2.70;;;;;;;15.91;98.48;100495.75;5013225;28;20268;-73
2021/08/04 06:29:01;;;;;;;3.27;2.87;;;;;;;16.06;99.36;100504.13;5013007;28;20212;-73
2021/08/04 06:31:26;;;;;;;3.67;2.90;;;;;;;16.23;98.78;100508.56;5012222;28;20184;-73
2021/08/04 06:33:51;;;;;;;3.13;2.83;;;;;;;16.17;95.61;100504.44;5013034;28;20188;-73
2021/08/04 06:36:17;;;;;;;2.17;2.07;;;;;;;16.27;94.17;100505.91;5013235;28;20651;-73
2021/08/04 06:38:42;;;;;;;2.97;2.53;;;;;;;16.13;91.28;100506.28;5012975;28;20212;-74
2021/08/04 06:41:07;;;;;;;4.27;2.80;;;;;;;16.14;91.06;100504.34;5013160;28;20176;-73
2021/08/04 06:43:33;;;;;;;2.77;2.57;;;;;;;16.24;91.43;100498.34;5012641;28;20251;-73
2021/08/04 06:45:58;;;;;;;2.50;2.30;;;;;;;16.20;90.88;100508.44;5010851;28;20189;-78
2021/08/04 06:48:23;;;;;;;2.77;2.50;;;;;;;16.26;91.05;100504.31;5008820;28;20686;-76
2021/08/04 06:50:49;;;;;;;2.47;2.27;;;;;;;16.03;92.52;100498.50;5005168;28;20196;-76
2021/08/04 06:53:14;;;;;;;3.03;2.80;;;;;;;16.35;93.98;100507.75;5004011;28;20196;-81
2021/08/04 06:55:39;;;;;;;3.00;2.80;;;;;;;16.59;92.07;100506.84;5004000;28;20188;-74
2021/08/04 06:58:05;;;;;;;2.50;2.30;;;;;;;16.75;93.15;100523.50;5002713;28;20189;-74
2021/08/04 07:00:30;;;;;;;3.17;2.97;;;;;;;16.86;90.94;100519.88;5002345;28;20188;-74
2021/08/04 07:02:55;;;;;;;2.87;2.67;;;;;;;16.88;89.08;100525.06;5006427;28;20611;-72
2021/08/04 07:05:21;;;;;;;3.00;2.80;;;;;;;16.87;91.38;100520.69;5004354;28;20185;-71
2021/08/04 07:07:46;;;;;;;5.37;3.27;;;;;;;16.80;90.11;100520.50;4996124;28;20242;-73
2021/08/04 07:10:13;;;;;;;3.13;2.93;;;;;;;16.81;91.50;100524.88;4993036;28;20688;-73
2021/08/04 07:12:39;;;;;;;3.13;2.70;;;;;;;16.96;92.51;100524.13;4993062;28;20264;-71
2021/08/04 07:15:05;;;;;;;2.70;2.50;;;;;;;17.02;92.03;100522.69;4993113;28;20288;-71
2021/08/04 07:17:50;;;;;;;3.63;3.07;;;;;;;17.00;90.00;100521.44;4993165;28;20169;-71
2021/08/04 07:20:21;;;;;;;3.07;2.87;;;;;;;17.02;89.59;100519.94;4993088;28;20688;-71
2021/08/04 07:22:48;;;;;;;3.43;3.20;;;;;;;16.99;91.33;100522.59;4992885;28;20173;-71
2021/08/04 07:25:14;;;;;;;3.10;2.90;;;;;;;17.06;92.78;100523.59;4992970;28;20204;-71
2021/08/04 07:27:39;;;;;;;4.27;3.30;;;;;;;17.02;93.05;100522.69;4992942;28;20624;-71
2021/08/04 07:30:07;;;;;;;3.30;3.10;;;;;;;16.87;90.75;100513.22;4992784;28;20259;-71
2021/08/04 07:32:33;;;;;;;3.17;2.87;;;;;;;17.07;90.97;100527.13;5001376;28;20184;-71
2021/08/04 07:35:00;;;;;;;5.37;2.83;;;;;;;17.30;90.93;100524.59;5011915;28;20185;-71
2021/08/04 07:37:30;;;;;;;2.50;2.30;;;;;;;17.25;88.41;100522.91;5012002;28;20318;-71
2021/08/04 07:39:56;;;;;;;2.43;2.20;;;;;;;17.45;87.31;100524.63;5010904;28;20176;-72
2021/08/04 07:42:25;;;;;;;2.63;2.43;;;;;;;17.53;85.64;100520.88;5011650;28;20183;-71
2021/08/04 07:44:51;;;;;;;4.10;2.80;;;;;;;17.61;87.00;100527.38;5011501;28;20182;-72
2021/08/04 07:47:17;;;;;;;2.77;2.57;;;;;;;17.33;86.01;100518.38;5012126;28;20215;-72
2021/08/04 07:49:42;;;;;;;4.67;2.60;;;;;;;17.54;84.52;100525.25;5011734;28;20299;-72
2021/08/04 07:52:08;;;;;;;2.10;2.00;;;;;;;17.56;85.06;100524.91;5011852;28;20176;-71
2021/08/04 07:54:34;;;;;;;2.60;2.40;;;;;;;17.64;85.16;100517.56;5027202;28;20176;-71
2021/08/04 07:57:00;;;;;;;2.33;2.17;;;;;;;17.59;85.13;100523.38;5012102;28;20179;-71
2021/08/04 07:59:26;;;;;;;2.77;2.57;;;;;;;17.27;84.18;100514.28;5011840;28;20180;-71
2021/08/04 08:01:51;;;;;;;2.50;2.30;;;;;;;17.11;87.45;100520.59;5011721;28;20195;-71
2021/08/04 08:04:37;;;;;;;2.30;2.10;;;;;;;17.54;88.41;100516.16;5087891;28;20993;-71
2021/08/04 08:07:03;;;;;;;2.53;2.33;;;;;;;17.71;85.72;100523.31;5088189;28;20672;-72
2021/08/04 08:09:29;;;;;;;2.67;2.40;;;;;;;17.88;84.94;100530.44;5088243;28;20390;-71
2021/08/04 08:11:58;;;;;;;2.20;2.03;;;;;;;17.86;83.40;100521.69;5086755;28;20177;-73
2021/08/04 08:14:24;;;;;;;2.50;2.30;;;;;;;17.94;84.67;100520.69;5085367;28;20178;-73
2021/08/04 08:16:50;;;;;;;2.50;2.30;;;;;;;17.96;84.85;100518.41;5087755;28;20174;-73
2021/08/04 08:19:15;;;;;;;2.40;2.20;;;;;;;17.86;83.90;100516.97;5086352;28;20572;-73
2021/08/04 08:21:41;;;;;;;5.37;2.00;;;;;;;17.98;84.08;100525.16;5084879;28;20546;-71
2021/08/04 08:24:06;;;;;;;1.93;1.83;;;;;;;18.09;84.52;100515.16;5087730;28;20216;-71
2021/08/04 08:26:34;;;;;;;2.60;2.40;;;;;;;18.15;83.70;100515.66;5087727;28;20170;-71
2021/08/04 08:29:00;;;;;;;2.87;2.67;;;;;;;18.08;83.91;100516.31;5087740;28;20599;-70
2021/08/04 08:31:25;;;;;;;2.17;1.90;;;;;;;18.24;82.68;100515.47;5087496;28;20178;-71
2021/08/04 08:33:50;;;;;;;2.43;2.13;;;;;;;18.06;82.25;100517.81;5087722;28;20625;-71
2021/08/04 08:36:16;;;;;;;2.63;2.43;;;;;;;18.23;81.38;100511.91;5087696;28;20200;-71
2021/08/04 08:38:41;;;;;;;2.40;2.20;;;;;;;18.12;81.06;100516.41;5087477;28;20177;-71
2021/08/04 08:41:07;;;;;;;2.10;2.00;;;;;;;18.33;82.98;100516.06;5087541;28;20212;-71
2021/08/04 08:43:34;;;;;;;2.33;2.13;;;;;;;18.47;81.47;100565.38;5087279;28;20258;-71
2021/08/04 08:46:04;;;;;;;2.10;2.00;;;;;;;18.50;82.41;100561.88;5087434;28;20174;-71
2021/08/04 08:48:29;;;;;;;2.43;2.23;;;;;;;18.46;81.65;100567.34;5087450;28;20178;-73
2021/08/04 08:50:55;;;;;;;2.97;2.77;;;;;;;18.42;84.05;100566.47;5087610;28;20196;-73
2021/08/04 08:53:21;;;;;;;2.67;2.47;;;;;;;18.49;84.33;100568.56;5087161;28;20181;-71
2021/08/04 08:55:48;;;;;;;3.13;2.93;;;;;;;18.29;84.65;100728.19;5087293;28;20249;-73
2021/08/04 08:58:13;;;;;;;2.63;2.43;;;;;;;18.29;84.90;100567.75;5087094;28;20174;-72
2021/08/04 09:00:39;;;;;;;3.13;2.90;;;;;;;18.39;83.97;100550.59;5087144;28;20673;-71
2021/08/04 09:03:04;;;;;;;2.10;2.00;;;;;;;18.41;80.41;100543.53;5086808;28;20258;-71
2021/08/04 09:05:47;;;;;;;2.70;2.50;;;;;;;18.41;81.43;100537.19;5087010;28;20208;-71
2021/08/04 09:08:30;;;;;;;2.50;2.30;;;;;;;18.48;83.18;100529.03;5087194;28;20173;-70
2021/08/04 09:10:58;;;;;;;3.40;3.10;;;;;;;18.48;83.36;100523.50;5087187;28;20257;-71
2021/08/04 09:13:32;;;;;;;3.07;2.80;;;;;;;18.59;84.02;100530.06;5086839;28;20178;-71
2021/08/04 09:16:05;;;;;;;3.50;3.20;;;;;;;18.65;82.40;100525.06;5073030;28;20198;-71
2021/08/04 09:18:39;;;;;;;3.10;2.90;;;;;;;18.83;83.11;100722.81;5072970;28;20182;-71
2021/08/04 09:21:05;;;;;;;2.57;2.37;;;;;;;18.97;81.72;100644.81;5067873;28;20178;-71
2021/08/04 09:23:30;;;;;;;4.47;2.77;;;;;;;18.58;78.79;100730.50;5067977;28;20268;-70
2021/08/04 09:26:06;;;;;;;2.67;2.47;;;;;;;18.66;78.63;100549.63;5072833;28;20771;-71
2021/08/04 09:29:11;;;;;;;2.97;2.77;;;;;;;18.30;79.88;100536.94;5072703;28;20186;-71
2021/08/04 09:31:39;;;;;;;3.20;3.00;;;;;;;18.70;80.92;100541.41;5070601;28;20236;-71
2021/08/04 09:34:28;;;;;;;2.83;2.63;;;;;;;19.03;80.43;100527.03;5072825;28;20695;-70
2021/08/04 09:37:16;;;;;;;2.60;2.40;;;;;;;19.12;77.89;100535.91;5072642;28;20784;-71
2021/08/04 09:39:44;;;;;;;2.83;2.63;;;;;;;18.98;78.95;100543.94;5072536;28;20422;-71
2021/08/04 09:42:12;;;;;;;3.30;3.10;;;;;;;18.39;80.37;100537.56;5069950;28;20179;-71
2021/08/04 09:44:54;;;;;;;3.10;2.90;;;;;;;18.81;82.02;100536.09;5069971;28;20175;-70
2021/08/04 09:47:21;;;;;;;3.07;2.27;;;;;;;19.15;80.05;100542.69;5072474;28;20257;-71
2021/08/04 09:49:57;;;;;;;2.60;2.40;;;;;;;19.30;80.19;100537.03;5070847;28;20193;-71
2021/08/04 09:52:23;;;;;;;2.83;2.63;;;;;;;19.25;78.25;100542.91;5072021;28;20174;-71
2021/08/04 09:54:49;;;;;;;3.53;2.47;;;;;;;19.25;78.26;100548.44;5070538;28;20183;-71
2021/08/04 09:57:15;;;;;;;2.53;2.33;;;;;;;19.17;78.34;100540.34;5070904;28;20182;-71
2021/08/04 09:59:40;;;;;;;2.67;2.47;;;;;;;19.26;77.56;100540.94;5072001;28;20534;-71
2021/08/04 10:02:26;;;;;;;2.40;2.30;;;;;;;19.42;77.98;100555.47;5071726;28;20186;-71
2021/08/04 10:05:16;;;;;;;2.20;2.00;;;;;;;19.52;75.50;100557.59;5071936;28;20189;-71
2021/08/04 10:08:13;;;;;;;2.57;2.37;;;;;;;19.38;78.05;100551.81;5071934;28;20177;-71
2021/08/04 10:10:56;;;;;;;2.47;2.27;;;;;;;19.57;76.53;100554.56;5071668;28;20178;-71
2021/08/04 10:13:27;;;;;;;2.50;2.30;;;;;;;19.51;76.52;100538.56;5057947;28;20178;-71
2021/08/04 10:15:57;;;;;;;2.17;2.03;;;;;;;19.84;77.78;100547.13;5071518;28;20185;-71
2021/08/04 10:18:30;;;;;;;2.50;2.27;;;;;;;19.99;76.16;100564.78;5071692;28;20175;-71
2021/08/04 10:21:00;;;;;;;3.30;3.10;;;;;;;19.86;73.15;100544.75;5071520;28;20171;-70
2021/08/04 10:23:27;;;;;;;3.27;3.03;;;;;;;20.03;73.70;100551.75;5071547;28;20206;-70
2021/08/04 10:25:54;;;;;;;2.60;2.40;;;;;;;20.01;72.36;100548.56;5070891;28;20269;-71
2021/08/04 10:28:20;;;;;;;2.97;2.63;;;;;;;20.16;74.24;100550.38;5071592;28;20289;-71
2021/08/04 10:30:46;;;;;;;3.37;3.07;;;;;;;20.34;73.63;100555.38;5071536;28;20637;-70
2021/08/04 10:33:12;;;;;;;3.37;3.07;;;;;;;20.50;70.69;100547.69;5071328;28;20175;-71
2021/08/04 10:35:43;;;;;;;2.77;2.57;;;;;;;20.66;72.89;100564.16;5071307;28;20246;-71
2021/08/04 10:38:21;;;;;;;5.63;2.47;;;;;;;20.67;70.69;100541.56;5069764;28;20170;-71
2021/08/04 10:41:12;;;;;;;3.20;3.00;;;;;;;20.69;71.77;100542.03;5071204;28;20167;-71
2021/08/04 10:43:48;;;;;;;3.17;2.97;;;;;;;20.84;69.06;100544.97;5070879;28;20383;-71
2021/08/04 10:46:28;;;;;;;2.90;2.70;;;;;;;20.80;70.28;100537.38;5071353;28;20223;-71
2021/08/04 10:49:06;;;;;;;2.90;2.70;;;;;;;20.82;69.16;100528.66;5071179;28;20661;-71
2021/08/04 10:51:36;;;;;;;3.90;2.67;;;;;;;20.81;70.16;100521.50;5070358;28;20257;-71
2021/08/04 10:54:02;;;;;;;3.57;2.60;;;;;;;21.12;69.45;100536.13;5069915;28;20174;-71
2021/08/04 10:56:37;;;;;;;2.90;2.70;;;;;;;21.27;64.57;100537.94;5071059;28;20177;-72
2021/08/04 10:59:08;;;;;;;3.93;3.10;;;;;;;21.21;65.19;100529.13;5071309;28;20668;-71
2021/08/04 11:01:35;;;;;;;3.00;2.73;;;;;;;21.36;68.37;100536.44;5070670;28;20269;-71
2021/08/04 11:04:01;;;;;;;2.93;2.73;;;;;;;21.57;63.66;100529.50;5070511;28;20198;-71
2021/08/04 11:06:26;;;;;;;3.73;3.00;;;;;;;21.59;63.92;100530.69;5068922;28;20236;-71
2021/08/04 11:09:19;;;;;;;4.00;3.10;;;;;;;21.60;63.09;100523.97;5070642;28;20167;-71
2021/08/04 11:11:54;;;;;;;2.80;2.60;;;;;;;22.09;63.88;100588.75;5070650;28;20666;-71
2021/08/04 11:14:46;;;;;;;2.90;2.70;;;;;;;21.97;63.25;100771.47;5070779;28;20215;-71
2021/08/04 11:17:25;;;;;;;2.20;1.90;;;;;;;21.74;63.38;100519.69;5070817;28;20163;-71
2021/08/04 11:19:57;;;;;;;3.57;3.17;;;;;;;21.54;61.85;100500.44;5070339;28;20175;-72
2021/08/04 11:22:41;;;;;;;3.10;2.90;;;;;;;21.02;63.18;100471.78;5070258;28;20186;-71
2021/08/04 11:25:12;;;;;;;3.90;2.53;;;;;;;21.36;64.56;100488.38;5070359;28;20175;-71
2021/08/04 11:27:43;;;;;;;2.33;2.13;;;;;;;21.39;64.59;100519.00;5070691;28;20167;-71